Beacon Hill, Washington
Current Conditions -  °F | °C
As of 4:53 AM on Thursday 30 Oct 2014 (Local Time) from KBFI Reporting Station
Few Clouds Few Clouds  
Wind Chill: 55°   Ceiling: Unl
Heat Index: 55°   Visibility: 10mi
Dew Point: 50°   Wind: 0mph
Humidity: 83%   Direction: NA
Pressure: 29.92"   Gusts: NA
Location:  47.5852°N, 122.3°W
Report Text: KBFI 301153Z 00000KT 10SM FEW060 13/10 A2992 RMK AO2 RAB24E33 SLP133 P0000 60000 70002 T01280100 10133 20122 58022
Loading
Personal Weather Stations






























Interactive Weather Map
Tropical Storm Tracking
New forecast layout! Learn more

10-Day Weather Forecast

Advertisements
Track Severe Weather on mobile